createdAt,value
2022-08-09T00:00:01.009Z,19.19
2022-08-09T00:02:34.659Z,19.03
2022-08-09T00:06:18.225Z,19.00
2022-08-09T00:07:55.771Z,19.01
2022-08-09T00:10:29.161Z,18.83
2022-08-09T00:12:59.120Z,18.76
2022-08-09T00:15:57.932Z,18.65
2022-08-09T00:18:17.858Z,18.62
2022-08-09T00:20:50.546Z,18.30
2022-08-09T00:23:54.805Z,18.28
2022-08-09T00:26:10.977Z,18.18
2022-08-09T00:28:41.244Z,17.92
2022-08-09T00:31:57.467Z,17.95
2022-08-09T00:33:59.485Z,17.99
2022-08-09T00:36:32.624Z,17.95
2022-08-09T00:39:01.806Z,17.90
2022-08-09T00:44:15.772Z,17.83
2022-08-09T00:44:26.682Z,17.66
2022-08-09T00:47:05.619Z,17.77
2022-08-09T00:49:36.658Z,17.79
2022-08-09T00:52:15.893Z,17.57
2022-08-09T00:54:46.281Z,17.62
2022-08-09T00:57:24.702Z,17.74
2022-08-09T01:00:02.965Z,17.75
2022-08-09T01:02:35.146Z,17.90
2022-08-09T01:05:14.202Z,17.94
2022-08-09T01:08:00.321Z,17.89
2022-08-09T01:10:38.453Z,18.02
2022-08-09T01:13:18.828Z,17.95
2022-08-09T01:15:55.730Z,17.94
2022-08-09T01:18:31.488Z,17.91
2022-08-09T01:21:17.607Z,17.88
2022-08-09T01:24:01.780Z,17.90
2022-08-09T01:26:46.209Z,17.95
2022-08-09T01:29:17.548Z,18.00
2022-08-09T01:32:30.059Z,17.77
2022-08-09T01:34:39.813Z,18.05
2022-08-09T01:37:12.246Z,18.03
2022-08-09T01:39:44.055Z,17.99
2022-08-09T01:42:15.144Z,18.09
2022-08-09T01:44:44.576Z,18.06
2022-08-09T01:47:17.434Z,18.17
2022-08-09T01:49:50.967Z,18.21
2022-08-09T01:52:26.141Z,18.20
2022-08-09T01:54:58.886Z,18.16
2022-08-09T01:57:40.225Z,18.21
2022-08-09T02:00:34.506Z,18.19
2022-08-09T02:03:13.726Z,18.34
2022-08-09T02:06:03.878Z,18.36
2022-08-09T02:08:57.301Z,18.40
2022-08-09T02:11:24.142Z,18.44
2022-08-09T02:14:26.593Z,18.35
2022-08-09T02:17:14.724Z,18.36
2022-08-09T02:19:45.812Z,18.33
2022-08-09T02:22:31.485Z,18.32
2022-08-09T02:25:04.363Z,18.38
2022-08-09T02:27:57.622Z,18.28
2022-08-09T02:30:54.963Z,18.18
2022-08-09T02:33:58.377Z,17.89
2022-08-09T02:36:31.480Z,18.11
2022-08-09T02:39:04.850Z,18.01
2022-08-09T02:41:40.148Z,18.03
2022-08-09T02:44:29.473Z,17.95
2022-08-09T02:47:06.881Z,17.84
2022-08-09T02:49:44.762Z,18.03
2022-08-09T02:52:16.546Z,18.14
2022-08-09T02:54:54.551Z,18.15
2022-08-09T02:57:25.709Z,18.21
2022-08-09T03:00:20.722Z,18.28
2022-08-09T03:02:59.885Z,18.37
2022-08-09T03:05:34.694Z,18.42
2022-08-09T03:08:06.602Z,18.49
2022-08-09T03:10:38.026Z,18.63
2022-08-09T03:13:09.951Z,18.72
2022-08-09T03:16:06.070Z,18.67
2022-08-09T03:18:31.680Z,18.82
2022-08-09T03:21:02.145Z,18.81
2022-08-09T03:23:31.364Z,18.96
2022-08-09T03:26:03.677Z,19.14
2022-08-09T03:28:36.215Z,19.20
2022-08-09T03:31:10.214Z,19.32
2022-08-09T03:33:54.302Z,19.40
2022-08-09T03:36:27.832Z,19.39
2022-08-09T03:38:57.231Z,19.17
2022-08-09T03:41:30.251Z,19.43
2022-08-09T03:44:15.522Z,19.27
2022-08-09T03:46:45.014Z,19.40
2022-08-09T03:49:19.382Z,19.27
2022-08-09T03:52:00.086Z,19.43
2022-08-09T03:54:34.421Z,19.39
2022-08-09T03:57:18.403Z,19.70
2022-08-09T03:59:54.983Z,19.79
2022-08-09T04:02:28.393Z,19.71
2022-08-09T04:05:01.324Z,19.75
2022-08-09T04:07:53.214Z,19.80
2022-08-09T04:10:28.851Z,19.94
2022-08-09T04:13:00.690Z,19.83
2022-08-09T04:16:17.303Z,19.86
2022-08-09T04:18:21.657Z,19.73
2022-08-09T04:20:52.373Z,19.66
2022-08-09T04:23:23.333Z,19.61
2022-08-09T04:25:54.345Z,19.51
2022-08-09T04:28:34.121Z,19.51
2022-08-09T04:31:09.046Z,19.50
2022-08-09T04:33:47.460Z,19.44
2022-08-09T04:36:26.287Z,19.39
2022-08-09T04:38:56.082Z,19.33
2022-08-09T04:41:32.819Z,19.28
2022-08-09T04:44:05.800Z,19.29
2022-08-09T04:46:59.841Z,19.38
2022-08-09T04:49:52.325Z,19.42
2022-08-09T04:52:26.804Z,19.53
2022-08-09T04:55:04.471Z,19.43
2022-08-09T04:57:54.277Z,19.39
2022-08-09T05:00:25.605Z,19.44
2022-08-09T05:03:13.368Z,19.47
2022-08-09T05:05:52.504Z,19.73
2022-08-09T05:08:35.007Z,19.87
2022-08-09T05:11:06.917Z,19.77
2022-08-09T05:13:54.905Z,20.03
2022-08-09T05:16:31.539Z,20.00
2022-08-09T05:19:02.833Z,19.99
2022-08-09T05:21:36.530Z,19.85
2022-08-09T05:24:17.323Z,19.85
2022-08-09T05:26:47.823Z,19.88
2022-08-09T05:29:31.510Z,20.01
2022-08-09T05:32:06.867Z,20.09
2022-08-09T05:34:42.860Z,19.84
2022-08-09T05:37:23.587Z,20.00
2022-08-09T05:39:59.442Z,19.36
2022-08-09T05:42:29.866Z,20.22
2022-08-09T05:45:02.841Z,20.59
2022-08-09T05:47:35.231Z,20.55
2022-08-09T05:50:25.593Z,20.55
2022-08-09T05:53:21.433Z,20.76
2022-08-09T05:58:57.846Z,20.77
2022-08-09T06:01:34.228Z,21.12
2022-08-09T06:04:12.336Z,20.99
2022-08-09T06:06:49.743Z,20.82
2022-08-09T06:09:41.199Z,20.77
2022-08-09T06:12:17.224Z,20.53
2022-08-09T06:14:53.201Z,20.48
2022-08-09T06:20:31.393Z,20.53
2022-08-09T06:23:03.339Z,20.66
2022-08-09T06:25:32.467Z,20.37
2022-08-09T06:28:05.636Z,20.93
2022-08-09T06:30:34.832Z,20.95
2022-08-09T06:33:41.022Z,21.01
2022-08-09T06:36:11.896Z,21.29
2022-08-09T06:38:50.115Z,21.15
2022-08-09T06:41:20.605Z,20.52
2022-08-09T06:55:23.107Z,20.28
2022-08-09T06:58:01.524Z,20.66
2022-08-09T07:00:51.877Z,20.71
2022-08-09T07:03:28.006Z,20.94
2022-08-09T07:06:03.642Z,20.91
2022-08-09T07:08:37.332Z,20.96
2022-08-09T07:11:08.655Z,20.75
2022-08-09T07:14:03.973Z,20.78
2022-08-09T07:16:43.424Z,20.62
2022-08-09T07:19:22.902Z,20.32
2022-08-09T07:21:55.641Z,19.98
2022-08-09T07:24:31.404Z,19.91
2022-08-09T07:27:03.119Z,19.75
2022-08-09T07:29:38.004Z,19.78
2022-08-09T07:32:13.323Z,20.02
2022-08-09T07:34:42.454Z,20.12
2022-08-09T07:37:15.751Z,20.24
2022-08-09T07:39:44.751Z,20.13
2022-08-09T07:42:15.657Z,20.35
2022-08-09T07:44:51.769Z,20.40
2022-08-09T07:47:26.500Z,20.51
2022-08-09T07:50:08.151Z,20.86
2022-08-09T08:01:52.917Z,21.39
2022-08-09T08:04:31.614Z,22.12
2022-08-09T08:07:15.597Z,22.56
2022-08-09T08:10:07.921Z,22.63
2022-08-09T08:12:45.158Z,22.59
2022-08-09T08:15:17.747Z,22.83
2022-08-09T08:17:53.790Z,23.23
2022-08-09T08:20:32.266Z,23.58
2022-08-09T08:23:16.176Z,23.65
2022-08-09T08:25:49.739Z,24.01
2022-08-09T08:28:25.916Z,24.35
2022-08-09T08:31:10.432Z,24.48
2022-08-09T08:33:52.683Z,24.60
2022-08-09T08:36:28.848Z,24.56
2022-08-09T08:38:58.763Z,24.28
2022-08-09T08:41:50.415Z,24.30
2022-08-09T08:44:26.854Z,24.52
2022-08-09T08:47:12.280Z,24.64
2022-08-09T08:49:47.823Z,24.42
2022-08-09T08:55:13.565Z,24.30
2022-08-09T08:57:43.979Z,24.47
2022-08-09T09:00:30.451Z,24.46
2022-08-09T09:03:08.720Z,24.59
2022-08-09T09:05:58.346Z,24.89
2022-08-09T09:08:38.042Z,24.96
2022-08-09T09:11:17.822Z,24.45
2022-08-09T09:13:58.669Z,24.36
2022-08-09T09:16:34.356Z,24.50
2022-08-09T09:19:36.962Z,24.34
2022-08-09T09:22:08.014Z,24.41
2022-08-09T09:24:43.986Z,24.37
2022-08-09T09:28:03.106Z,24.30
2022-08-09T09:30:26.159Z,24.22
2022-08-09T09:33:17.098Z,24.50
2022-08-09T09:36:02.653Z,24.58
2022-08-09T09:38:44.711Z,24.93
2022-08-09T09:41:33.427Z,25.06
2022-08-09T09:44:27.615Z,25.08
2022-08-09T09:47:08.558Z,25.35
2022-08-09T09:50:06.918Z,24.95
2022-08-09T09:52:35.772Z,24.65
2022-08-09T09:55:24.097Z,24.83
2022-08-09T09:58:19.137Z,24.99
2022-08-09T10:00:59.764Z,25.00
2022-08-09T10:03:44.385Z,25.60
2022-08-09T10:06:15.227Z,25.35
2022-08-09T10:08:54.975Z,25.39
2022-08-09T10:12:00.874Z,24.87
2022-08-09T10:14:30.394Z,24.68
2022-08-09T10:17:11.343Z,24.30
2022-08-09T10:19:52.927Z,24.62
2022-08-09T10:22:34.715Z,25.05
2022-08-09T10:25:11.994Z,25.56
2022-08-09T10:27:56.717Z,26.80
2022-08-09T10:34:07.987Z,28.39
2022-08-09T10:36:12.141Z,28.54
2022-08-09T10:38:56.442Z,28.74
2022-08-09T10:41:26.653Z,28.71
2022-08-09T10:44:01.796Z,29.59
2022-08-09T10:47:04.033Z,29.74
2022-08-09T10:49:54.378Z,29.91
2022-08-09T10:52:42.679Z,30.28
2022-08-09T10:55:24.284Z,29.36
2022-08-09T10:57:55.824Z,28.82
2022-08-09T11:00:51.029Z,29.77
2022-08-09T11:03:49.554Z,31.50
2022-08-09T11:06:25.472Z,31.91
2022-08-09T11:08:55.024Z,31.01
2022-08-09T11:12:12.323Z,30.75
2022-08-09T11:14:56.253Z,29.93
2022-08-09T11:18:02.653Z,29.08
2022-08-09T11:23:24.024Z,27.32
2022-08-09T11:26:00.371Z,28.17
2022-08-09T11:28:38.875Z,29.42
2022-08-09T11:31:48.836Z,30.17
2022-08-09T11:34:35.250Z,31.63
2022-08-09T11:37:07.341Z,33.50
2022-08-09T11:40:06.117Z,35.44
2022-08-09T11:42:49.351Z,35.66
2022-08-09T11:45:26.299Z,33.95
2022-08-09T11:48:26.718Z,32.04
2022-08-09T11:52:49.190Z,30.51
2022-08-09T11:54:14.445Z,29.23
2022-08-09T11:56:52.422Z,28.58
2022-08-09T11:59:33.786Z,28.96
2022-08-09T12:02:18.410Z,29.11
2022-08-09T12:04:59.069Z,29.34
2022-08-09T12:07:41.388Z,29.67
2022-08-09T12:10:14.407Z,29.71
2022-08-09T12:14:07.262Z,31.28
2022-08-09T12:15:52.927Z,33.36
2022-08-09T12:18:30.020Z,34.44
2022-08-09T12:21:02.802Z,33.72
2022-08-09T12:23:56.141Z,33.09
2022-08-09T12:26:26.254Z,32.54
2022-08-09T12:29:14.404Z,32.73
2022-08-09T12:32:02.005Z,32.79
2022-08-09T12:34:36.879Z,33.12
2022-08-09T12:37:09.537Z,34.06
2022-08-09T12:40:05.582Z,34.42
2022-08-09T12:42:36.135Z,34.32
2022-08-09T12:45:34.566Z,34.10
2022-08-09T12:48:31.031Z,32.80
2022-08-09T12:51:03.916Z,32.75
2022-08-09T12:53:38.861Z,31.80
2022-08-09T12:56:39.715Z,30.85
2022-08-09T12:59:11.768Z,30.06
2022-08-09T13:02:01.806Z,29.65
2022-08-09T13:04:38.628Z,28.96
2022-08-09T13:10:07.351Z,27.63
2022-08-09T13:13:10.171Z,27.05
2022-08-09T13:15:37.458Z,26.84
2022-08-09T13:18:17.270Z,27.02
2022-08-09T13:21:04.018Z,26.76
2022-08-09T13:24:15.778Z,26.54
2022-08-09T13:26:37.633Z,26.35
2022-08-09T13:29:09.146Z,26.69
2022-08-09T13:32:15.712Z,29.16
2022-08-09T13:34:46.176Z,29.36
2022-08-09T13:37:24.812Z,28.43
2022-08-09T13:41:54.160Z,27.72
2022-08-09T13:43:00.344Z,27.19
2022-08-09T13:46:42.699Z,27.14
2022-08-09T13:48:21.843Z,27.26
2022-08-09T13:50:53.182Z,27.46
2022-08-09T13:53:38.736Z,27.41
2022-08-09T13:56:12.640Z,26.83
2022-08-09T13:58:41.564Z,26.71
2022-08-09T14:01:13.476Z,26.48
2022-08-09T14:04:04.794Z,26.03
2022-08-09T14:09:21.724Z,25.46
2022-08-09T14:11:51.650Z,25.17
2022-08-09T14:14:27.009Z,24.83
2022-08-09T14:16:56.773Z,24.58
2022-08-09T14:19:30.268Z,24.29
2022-08-09T14:22:02.102Z,24.14
2022-08-09T14:24:33.713Z,23.72
2022-08-09T14:27:02.776Z,23.66
2022-08-09T14:30:34.687Z,23.49
2022-08-09T14:32:30.857Z,23.51
2022-08-09T14:35:02.372Z,23.23
2022-08-09T14:37:41.341Z,23.36
2022-08-09T14:40:39.038Z,23.09
2022-08-09T14:43:12.592Z,22.98
2022-08-09T14:46:57.565Z,23.22
2022-08-09T14:48:37.912Z,23.29
2022-08-09T14:51:07.622Z,23.28
2022-08-09T14:53:46.789Z,23.21
2022-08-09T14:56:19.504Z,23.26
2022-08-09T14:58:50.535Z,23.30
2022-08-09T15:01:27.481Z,23.51
2022-08-09T15:03:55.981Z,23.36
2022-08-09T15:06:24.335Z,23.54
2022-08-09T15:08:56.685Z,23.53
2022-08-09T15:11:26.884Z,23.22
2022-08-09T15:14:04.427Z,23.23
2022-08-09T15:16:41.646Z,23.15
2022-08-09T15:19:18.137Z,23.27
2022-08-09T15:22:01.269Z,23.30
2022-08-09T15:24:30.969Z,23.15
2022-08-09T15:27:01.032Z,23.14
2022-08-09T15:30:58.947Z,23.16
2022-08-09T15:32:28.573Z,22.97
2022-08-09T15:35:01.239Z,22.89
2022-08-09T15:37:56.262Z,22.84
2022-08-09T15:40:31.962Z,22.64
2022-08-09T15:43:03.321Z,22.51
2022-08-09T15:46:07.491Z,22.46
2022-08-09T15:48:28.971Z,22.32
2022-08-09T15:51:01.949Z,22.27
2022-08-09T15:54:05.443Z,22.20
2022-08-09T15:56:30.795Z,22.19
2022-08-09T15:59:02.483Z,22.16
2022-08-09T16:01:35.525Z,22.09
2022-08-09T16:04:05.641Z,21.99
2022-08-09T16:07:10.512Z,21.83
2022-08-09T16:17:16.970Z,21.80
2022-08-09T16:20:27.577Z,21.79
2022-08-09T16:23:54.680Z,21.48
2022-08-09T16:29:50.465Z,21.71
2022-08-09T16:32:54.189Z,21.73
2022-08-09T16:42:26.190Z,21.88
2022-08-09T16:44:58.294Z,22.04
2022-08-09T16:48:39.726Z,22.67
2022-08-09T16:50:38.981Z,23.44
2022-08-09T16:53:09.058Z,23.75
2022-08-09T16:55:57.924Z,24.03
2022-08-09T16:58:28.945Z,24.05
2022-08-09T17:01:05.346Z,24.00
2022-08-09T17:03:36.634Z,24.14
2022-08-09T17:06:31.511Z,23.92
2022-08-09T17:09:00.184Z,23.80
2022-08-09T17:11:41.905Z,23.33
2022-08-09T17:14:25.684Z,23.13
2022-08-09T17:16:59.847Z,22.78
2022-08-09T17:20:06.182Z,22.43
2022-08-09T17:28:50.728Z,21.24
2022-08-09T17:31:25.620Z,20.89
2022-08-09T17:33:58.843Z,20.87
2022-08-09T17:37:24.524Z,20.22
2022-08-09T17:40:33.507Z,20.20
2022-08-09T17:43:33.954Z,20.59
2022-08-09T17:46:11.794Z,20.38
2022-08-09T17:48:51.618Z,20.49
2022-08-09T17:51:23.114Z,20.33
2022-08-09T17:53:56.237Z,20.27
2022-08-09T17:56:35.283Z,20.07
2022-08-09T17:59:11.457Z,20.01
2022-08-09T18:02:08.004Z,19.97
2022-08-09T18:04:30.928Z,20.09
2022-08-09T18:07:00.431Z,20.05
2022-08-09T18:09:40.090Z,20.00
2022-08-09T18:12:17.410Z,19.92
2022-08-09T18:14:53.380Z,19.88
2022-08-09T18:17:27.362Z,19.88
2022-08-09T18:20:59.879Z,19.86
2022-08-09T18:23:05.640Z,19.78
2022-08-09T18:25:53.574Z,19.74
2022-08-09T18:30:38.913Z,19.65
2022-08-09T18:31:24.818Z,19.59
2022-08-09T18:34:01.700Z,19.58
2022-08-09T18:36:32.378Z,19.50
2022-08-09T18:39:04.697Z,19.46
2022-08-09T18:41:35.535Z,19.42
2022-08-09T18:44:12.780Z,19.49
2022-08-09T18:46:50.146Z,19.42
2022-08-09T18:49:41.486Z,19.13
2022-08-09T18:52:16.042Z,19.00
2022-08-09T18:54:52.177Z,18.98
2022-08-09T18:57:23.119Z,18.99
2022-08-09T19:00:01.511Z,19.14
2022-08-09T19:02:33.696Z,19.23
2022-08-09T19:05:20.596Z,19.20
2022-08-09T19:08:04.426Z,19.23
2022-08-09T19:10:40.143Z,19.11
2022-08-09T19:13:17.048Z,18.83
2022-08-09T19:15:55.760Z,19.03
2022-08-09T19:18:34.315Z,19.05
2022-08-09T19:21:09.806Z,18.94
2022-08-09T19:24:31.528Z,19.05
2022-08-09T19:26:34.901Z,18.88
2022-08-09T19:29:09.744Z,18.97
2022-08-09T19:31:49.502Z,18.91
2022-08-09T19:34:22.043Z,18.89
2022-08-09T19:36:52.399Z,18.74
2022-08-09T19:39:43.280Z,18.90
2022-08-09T19:42:15.099Z,18.89
2022-08-09T19:44:50.701Z,18.78
2022-08-09T19:47:23.963Z,18.58
2022-08-09T19:50:06.536Z,18.71
2022-08-09T19:52:51.426Z,18.84
2022-08-09T19:55:25.533Z,18.81
2022-08-09T19:57:59.649Z,18.82
2022-08-09T20:00:29.043Z,18.86
2022-08-09T20:04:11.169Z,18.85
2022-08-09T20:05:50.796Z,18.82
2022-08-09T20:08:25.121Z,18.62
2022-08-09T20:11:04.728Z,18.85
2022-08-09T20:13:37.052Z,18.79
2022-08-09T20:16:32.767Z,18.78
2022-08-09T20:19:43.029Z,18.82
2022-08-09T20:21:56.952Z,18.78
2022-08-09T20:24:29.478Z,18.71
2022-08-09T20:27:08.473Z,18.72
2022-08-09T20:29:39.055Z,18.63
2022-08-09T20:32:31.301Z,18.64
2022-08-09T20:34:59.996Z,18.50
2022-08-09T20:38:19.386Z,18.57
2022-08-09T20:40:24.824Z,18.57
2022-08-09T20:43:00.087Z,18.52
2022-08-09T20:46:01.452Z,18.54
2022-08-09T20:48:30.921Z,18.54
2022-08-09T20:51:02.948Z,18.53
2022-08-09T20:53:37.567Z,18.50
2022-08-09T20:56:20.758Z,18.42
2022-08-09T20:58:54.579Z,18.50
2022-08-09T21:01:34.887Z,18.47
2022-08-09T21:05:55.291Z,18.49
2022-08-09T21:07:11.254Z,18.47
2022-08-09T21:09:45.957Z,18.50
2022-08-09T21:15:15.381Z,18.58
2022-08-09T21:18:20.928Z,18.47
2022-08-09T21:20:32.734Z,18.55
2022-08-09T21:23:09.305Z,18.60
2022-08-09T21:25:59.830Z,18.61
2022-08-09T21:28:34.173Z,18.58
2022-08-09T21:31:17.856Z,18.65
2022-08-09T21:33:51.683Z,18.63
2022-08-09T21:36:29.124Z,18.59
2022-08-09T21:39:00.196Z,18.55
2022-08-09T21:42:04.302Z,18.56
2022-08-09T21:44:33.238Z,18.53
2022-08-09T21:47:05.012Z,18.48
2022-08-09T21:49:40.032Z,18.37
2022-08-09T21:52:14.861Z,18.34
2022-08-09T21:54:49.488Z,18.30
2022-08-09T21:57:37.391Z,18.26
2022-08-09T22:00:12.909Z,18.20
2022-08-09T22:02:42.902Z,18.07
2022-08-09T22:05:22.393Z,18.09
2022-08-09T22:07:53.086Z,18.09
2022-08-09T22:10:24.170Z,17.93
2022-08-09T22:12:53.028Z,18.04
2022-08-09T22:15:23.329Z,18.01
2022-08-09T22:18:03.819Z,17.91
2022-08-09T22:20:32.397Z,18.00
2022-08-09T22:23:00.752Z,18.02
2022-08-09T22:26:06.548Z,17.90
2022-08-09T22:28:29.457Z,17.94
2022-08-09T22:31:00.777Z,17.83
2022-08-09T22:33:37.677Z,17.88
2022-08-09T22:36:19.122Z,17.83
2022-08-09T22:38:48.793Z,17.90
2022-08-09T22:41:19.422Z,17.82
2022-08-09T22:44:03.040Z,17.81
2022-08-09T22:48:11.472Z,17.81
2022-08-09T22:49:21.902Z,17.75
2022-08-09T22:51:57.240Z,17.77
2022-08-09T22:54:27.569Z,17.77
2022-08-09T22:56:58.644Z,17.69
2022-08-09T22:59:57.459Z,17.76
2022-08-09T23:02:20.452Z,17.72
2022-08-09T23:04:53.312Z,17.71
2022-08-09T23:08:21.227Z,17.69
2022-08-09T23:10:30.076Z,17.58
2022-08-09T23:13:00.477Z,17.70
2022-08-09T23:15:30.271Z,17.68
2022-08-09T23:17:59.060Z,17.66
2022-08-09T23:20:28.909Z,17.63
2022-08-09T23:22:57.545Z,17.66
2022-08-09T23:25:26.044Z,17.67
2022-08-09T23:28:14.483Z,17.62
2022-08-09T23:30:51.616Z,17.61
2022-08-09T23:33:21.386Z,17.61
2022-08-09T23:36:05.793Z,17.63
2022-08-09T23:38:49.037Z,17.48
2022-08-09T23:41:27.701Z,17.12
2022-08-09T23:43:58.267Z,17.50
2022-08-09T23:46:28.551Z,17.43
2022-08-09T23:48:56.913Z,17.42
2022-08-09T23:51:25.526Z,17.40
2022-08-09T23:54:02.555Z,17.33
2022-08-09T23:56:53.296Z,17.27
2022-08-09T23:59:21.358Z,17.30
